createdAt,value
2023-04-05T00:02:00.473Z,12.25
2023-04-05T00:04:28.827Z,9.25
2023-04-05T00:06:57.551Z,10.88
2023-04-05T00:09:24.707Z,11.35
2023-04-05T00:11:51.885Z,11.60
2023-04-05T00:14:19.065Z,10.55
2023-04-05T00:16:46.262Z,10.15
2023-04-05T00:19:13.673Z,12.80
2023-04-05T00:21:40.894Z,10.32
2023-04-05T00:24:09.537Z,10.35
2023-04-05T00:26:36.724Z,9.57
2023-04-05T00:29:03.864Z,9.55
2023-04-05T00:31:31.163Z,7.72
2023-04-05T00:33:58.406Z,8.88
2023-04-05T00:36:26.338Z,9.50
2023-04-05T00:38:53.487Z,8.05
2023-04-05T00:41:21.092Z,8.52
2023-04-05T00:43:48.282Z,8.93
2023-04-05T00:46:16.799Z,9.23
2023-04-05T00:48:44.105Z,7.80
2023-04-05T00:51:11.713Z,7.68
2023-04-05T00:53:39.203Z,8.10
2023-04-05T00:56:06.674Z,7.40
2023-04-05T00:58:33.906Z,7.75
2023-04-05T01:01:06.591Z,8.35
2023-04-05T01:03:35.445Z,8.55
2023-04-05T01:06:09.872Z,7.10
2023-04-05T01:08:37.088Z,6.95
2023-04-05T01:11:05.085Z,6.47
2023-04-05T01:13:32.810Z,7.13
2023-04-05T01:16:00.403Z,7.43
2023-04-05T01:18:31.124Z,6.97
2023-04-05T01:21:02.725Z,7.82
2023-04-05T01:23:49.034Z,6.75
2023-04-05T01:26:34.975Z,7.15
2023-04-05T01:29:22.048Z,5.95
2023-04-05T01:31:57.290Z,6.43
2023-04-05T01:34:33.702Z,8.35
2023-04-05T01:37:03.704Z,7.25
2023-04-05T01:39:31.801Z,6.95
2023-04-05T01:42:00.196Z,6.07
2023-04-05T01:44:27.575Z,6.80
2023-04-05T01:46:54.826Z,6.40
2023-04-05T01:49:22.082Z,6.13
2023-04-05T01:51:49.226Z,6.45
2023-04-05T01:54:16.655Z,8.27
2023-04-05T01:56:43.824Z,7.93
2023-04-05T01:59:11.013Z,6.38
2023-04-05T02:01:38.171Z,5.63
2023-04-05T02:04:05.506Z,6.53
2023-04-05T02:06:32.860Z,5.93
2023-04-05T02:09:00.019Z,5.45
2023-04-05T02:11:27.194Z,6.10
2023-04-05T02:13:54.364Z,5.03
2023-04-05T02:16:21.553Z,7.25
2023-04-05T02:18:51.044Z,5.03
2023-04-05T02:21:18.404Z,7.15
2023-04-05T02:23:45.764Z,6.82
2023-04-05T02:26:12.875Z,6.75
2023-04-05T02:28:40.050Z,7.95
2023-04-05T02:31:11.311Z,8.65
2023-04-05T02:36:09.566Z,6.90
2023-04-05T02:41:03.879Z,6.93
2023-04-05T02:43:31.234Z,6.18
2023-04-05T02:45:58.377Z,5.85
2023-04-05T02:48:25.704Z,5.80
2023-04-05T02:50:52.895Z,6.63
2023-04-05T02:53:20.283Z,5.82
2023-04-05T02:55:57.290Z,6.60
2023-04-05T02:58:24.792Z,6.15
2023-04-05T03:00:54.219Z,5.20
2023-04-05T03:03:22.387Z,5.88
2023-04-05T03:05:49.906Z,7.20
2023-04-05T03:08:19.927Z,6.38
2023-04-05T03:10:47.573Z,7.82
2023-04-05T03:13:15.372Z,6.72
2023-04-05T03:15:42.679Z,7.55
2023-04-05T03:18:10.419Z,7.00
2023-04-05T03:20:41.529Z,5.40
2023-04-05T03:23:09.013Z,6.28
2023-04-05T03:25:40.653Z,5.45
2023-04-05T03:28:08.694Z,6.35
2023-04-05T03:30:36.336Z,5.35
2023-04-05T03:33:04.021Z,4.75
2023-04-05T03:35:31.521Z,5.75
2023-04-05T03:37:58.649Z,6.00
2023-04-05T03:40:26.082Z,6.10
2023-04-05T03:42:53.269Z,5.03
2023-04-05T03:45:24.042Z,6.18
2023-04-05T03:47:52.200Z,5.30
2023-04-05T03:50:19.331Z,5.70
2023-04-05T03:52:46.504Z,6.75
2023-04-05T03:55:13.723Z,4.22
2023-04-05T03:57:41.677Z,5.70
2023-04-05T04:00:14.572Z,5.07
2023-04-05T04:02:45.479Z,4.88
2023-04-05T04:05:13.449Z,5.45
2023-04-05T04:07:41.732Z,5.53
2023-04-05T04:10:09.540Z,5.18
2023-04-05T04:12:36.668Z,3.97
2023-04-05T04:15:04.109Z,4.28
2023-04-05T04:17:32.999Z,5.82
2023-04-05T04:20:00.150Z,3.85
2023-04-05T04:22:33.456Z,5.03
2023-04-05T04:25:04.794Z,5.22
2023-04-05T04:30:04.201Z,4.63
2023-04-05T04:32:50.740Z,5.03
2023-04-05T04:35:20.762Z,4.18
2023-04-05T04:37:53.116Z,4.13
2023-04-05T04:40:21.325Z,4.22
2023-04-05T04:42:48.492Z,4.97
2023-04-05T04:45:16.928Z,3.92
2023-04-05T04:47:48.042Z,4.35
2023-04-05T04:50:16.195Z,4.97
2023-04-05T04:52:43.386Z,3.78
2023-04-05T04:55:13.798Z,4.97
2023-04-05T04:57:42.834Z,3.75
2023-04-05T05:00:13.656Z,4.00
2023-04-05T05:02:42.308Z,4.75
2023-04-05T05:05:09.669Z,3.45
2023-04-05T05:07:37.011Z,4.05
2023-04-05T05:10:04.713Z,6.07
2023-04-05T05:12:32.879Z,3.75
2023-04-05T05:15:00.116Z,2.90
2023-04-05T05:17:27.336Z,3.28
2023-04-05T05:19:56.270Z,3.67
2023-04-05T05:22:23.584Z,3.88
2023-04-05T05:24:50.774Z,3.53
2023-04-05T05:27:17.955Z,6.07
2023-04-05T05:29:45.187Z,4.25
2023-04-05T05:32:17.131Z,3.40
2023-04-05T05:34:45.192Z,3.65
2023-04-05T05:37:12.959Z,3.25
2023-04-05T05:39:40.430Z,3.17
2023-04-05T05:42:07.535Z,4.07
2023-04-05T05:44:35.902Z,4.30
2023-04-05T05:47:03.680Z,4.18
2023-04-05T05:49:31.321Z,4.38
2023-04-05T05:51:58.549Z,5.30
2023-04-05T05:54:26.533Z,4.03
2023-04-05T05:56:53.920Z,4.82
2023-04-05T05:59:21.098Z,4.20
2023-04-05T06:01:48.816Z,4.13
2023-04-05T06:04:16.547Z,4.43
2023-04-05T06:06:46.675Z,6.45
2023-04-05T06:09:14.123Z,4.07
2023-04-05T06:11:53.134Z,4.53
2023-04-05T06:16:49.812Z,3.85
2023-04-05T06:19:17.060Z,5.00
2023-04-05T06:21:44.222Z,3.75
2023-04-05T06:24:11.544Z,4.05
2023-04-05T06:26:38.647Z,5.15
2023-04-05T06:29:06.185Z,5.45
2023-04-05T06:31:34.707Z,7.68
2023-04-05T06:34:01.929Z,5.85
2023-04-05T06:36:31.724Z,5.45
2023-04-05T06:38:59.523Z,5.80
2023-04-05T06:41:27.701Z,8.13
2023-04-05T06:43:55.651Z,7.05
2023-04-05T06:46:23.141Z,4.25
2023-04-05T06:48:50.753Z,4.75
2023-04-05T06:51:18.087Z,5.75
2023-04-05T06:53:45.394Z,5.13
2023-04-05T06:56:12.633Z,6.03
2023-04-05T06:58:40.096Z,7.65
2023-04-05T07:01:07.573Z,5.35
2023-04-05T07:03:34.824Z,5.18
2023-04-05T07:06:02.846Z,4.38
2023-04-05T07:08:32.006Z,5.65
2023-04-05T07:10:59.431Z,5.35
2023-04-05T07:13:26.724Z,5.20
2023-04-05T07:15:59.953Z,4.45
2023-04-05T07:18:27.120Z,5.45
2023-04-05T07:21:00.113Z,4.57
2023-04-05T07:23:28.295Z,6.47
2023-04-05T07:25:55.648Z,5.50
2023-04-05T07:28:22.926Z,6.00
2023-04-05T07:30:50.357Z,4.60
2023-04-05T07:33:17.546Z,6.18
2023-04-05T07:35:44.846Z,6.97
2023-04-05T07:38:11.999Z,5.35
2023-04-05T07:40:39.238Z,5.60
2023-04-05T07:43:06.602Z,4.38
2023-04-05T07:45:33.748Z,5.53
2023-04-05T07:48:00.943Z,4.50
2023-04-05T07:50:28.337Z,5.10
2023-04-05T07:52:55.456Z,5.90
2023-04-05T07:55:22.564Z,4.72
2023-04-05T07:57:49.805Z,4.45
2023-04-05T08:00:17.423Z,4.95
2023-04-05T08:02:44.681Z,4.60
2023-04-05T08:05:12.080Z,5.03
2023-04-05T08:07:39.447Z,5.07
2023-04-05T08:10:06.880Z,5.60
2023-04-05T08:12:35.695Z,5.68
2023-04-05T08:15:04.189Z,5.93
2023-04-05T08:17:31.386Z,8.30
2023-04-05T08:19:58.547Z,4.72
2023-04-05T08:22:29.066Z,5.63
2023-04-05T08:24:56.272Z,4.90
2023-04-05T08:27:23.682Z,4.78
2023-04-05T08:29:50.812Z,5.50
2023-04-05T08:32:18.002Z,5.47
2023-04-05T08:34:45.381Z,5.22
2023-04-05T08:37:12.504Z,5.43
2023-04-05T08:39:39.668Z,4.07
2023-04-05T08:42:06.846Z,10.63
2023-04-05T08:44:37.302Z,4.53
2023-04-05T08:47:04.518Z,4.38
2023-04-05T08:49:31.770Z,4.15
2023-04-05T08:52:01.717Z,4.22
2023-04-05T08:54:28.859Z,4.10
2023-04-05T08:56:58.113Z,5.05
2023-04-05T08:59:25.535Z,4.53
2023-04-05T09:01:53.255Z,3.95
2023-04-05T09:04:24.411Z,4.22
2023-04-05T09:09:19.400Z,4.63
2023-04-05T09:11:46.698Z,5.05
2023-04-05T09:14:13.932Z,3.67
2023-04-05T09:16:42.144Z,4.55
2023-04-05T09:19:09.848Z,4.43
2023-04-05T09:21:55.873Z,7.72
2023-04-05T09:24:42.616Z,5.28
2023-04-05T09:27:19.624Z,6.13
2023-04-05T09:29:47.530Z,5.43
2023-04-05T09:32:15.411Z,5.38
2023-04-05T09:34:43.165Z,6.82
2023-04-05T09:37:20.292Z,7.85
2023-04-05T09:39:49.509Z,6.18
2023-04-05T09:42:17.412Z,6.07
2023-04-05T09:44:58.357Z,6.88
2023-04-05T09:47:27.547Z,7.18
2023-04-05T09:49:54.824Z,6.85
2023-04-05T09:52:26.773Z,5.93
2023-04-05T09:54:56.664Z,7.25
2023-04-05T09:57:27.422Z,8.48
2023-04-05T09:59:54.990Z,6.13
2023-04-05T10:02:25.635Z,7.90
2023-04-05T10:04:53.161Z,6.80
2023-04-05T10:07:20.561Z,6.63
2023-04-05T10:09:48.722Z,6.68
2023-04-05T10:12:36.162Z,5.63
2023-04-05T10:15:03.451Z,5.15
2023-04-05T10:17:45.820Z,6.43
2023-04-05T10:20:20.333Z,6.85
2023-04-05T10:22:58.179Z,6.15
2023-04-05T10:25:32.866Z,8.55
2023-04-05T10:28:07.095Z,7.47
2023-04-05T10:30:39.133Z,7.53
2023-04-05T10:33:09.265Z,5.78
2023-04-05T10:35:36.501Z,6.22
2023-04-05T10:38:22.262Z,8.23
2023-04-05T10:40:50.630Z,8.45
2023-04-05T10:43:22.721Z,7.80
2023-04-05T10:45:52.983Z,7.03
2023-04-05T10:48:35.892Z,7.13
2023-04-05T10:51:04.006Z,9.13
2023-04-05T10:53:32.963Z,8.40
2023-04-05T10:56:02.112Z,8.13
2023-04-05T10:58:30.209Z,7.70
2023-04-05T11:00:57.961Z,8.07
2023-04-05T11:03:43.421Z,8.80
2023-04-05T11:06:22.555Z,8.23
2023-04-05T11:08:51.206Z,10.18
2023-04-05T11:11:19.178Z,9.85
2023-04-05T11:13:56.609Z,10.02
2023-04-05T11:16:24.802Z,7.80
2023-04-05T11:18:53.013Z,8.15
2023-04-05T11:21:24.441Z,9.27
2023-04-05T11:24:08.184Z,8.52
2023-04-05T11:26:57.533Z,10.32
2023-04-05T11:29:45.239Z,9.63
2023-04-05T11:32:13.088Z,8.13
2023-04-05T11:34:42.649Z,10.70
2023-04-05T11:37:09.895Z,11.70
2023-04-05T11:39:39.159Z,11.77
2023-04-05T11:42:07.267Z,10.70
2023-04-05T11:44:41.529Z,11.35
2023-04-05T11:47:09.392Z,9.02
2023-04-05T11:49:36.518Z,9.93
2023-04-05T11:52:13.912Z,10.48
2023-04-05T11:54:46.332Z,11.27
2023-04-05T11:57:15.159Z,10.35
2023-04-05T11:59:42.885Z,10.82
2023-04-05T12:02:10.215Z,11.23
2023-04-05T12:04:38.155Z,10.10
2023-04-05T12:07:11.265Z,11.25
2023-04-05T12:09:56.941Z,9.30
2023-04-05T12:12:24.492Z,13.45
2023-04-05T12:14:51.705Z,10.85
2023-04-05T12:17:18.862Z,12.52
2023-04-05T12:19:46.284Z,10.23
2023-04-05T12:22:13.763Z,11.18
2023-04-05T12:24:41.015Z,11.23
2023-04-05T12:27:08.171Z,12.30
2023-04-05T12:29:35.318Z,13.52
2023-04-05T12:32:04.610Z,10.50
2023-04-05T12:34:31.990Z,10.88
2023-04-05T12:37:03.107Z,13.30
2023-04-05T12:39:32.940Z,11.35
2023-04-05T12:42:01.141Z,11.68
2023-04-05T12:44:31.777Z,12.48
2023-04-05T12:47:03.110Z,11.60
2023-04-05T12:52:01.898Z,9.35
2023-04-05T12:54:29.202Z,11.75
2023-04-05T12:56:56.409Z,10.57
2023-04-05T12:59:24.223Z,12.10
2023-04-05T13:01:51.639Z,12.27
2023-04-05T13:04:18.920Z,12.27
2023-04-05T13:06:47.737Z,11.15
2023-04-05T13:09:15.320Z,11.38
2023-04-05T13:11:42.519Z,11.40
2023-04-05T13:14:09.956Z,11.18
2023-04-05T13:16:37.283Z,12.93
2023-04-05T13:19:04.551Z,11.68
2023-04-05T13:21:32.600Z,12.65
2023-04-05T13:23:59.762Z,13.05
2023-04-05T13:26:27.598Z,12.98
2023-04-05T13:28:54.803Z,13.05
2023-04-05T13:31:22.208Z,11.48
2023-04-05T13:33:49.404Z,13.23
2023-04-05T13:36:16.728Z,13.70
2023-04-05T13:38:43.982Z,14.02
2023-04-05T13:41:11.117Z,12.80
2023-04-05T13:43:38.240Z,10.60
2023-04-05T13:46:05.856Z,12.80
2023-04-05T13:48:33.009Z,13.93
2023-04-05T13:51:00.256Z,13.57
2023-04-05T13:53:28.601Z,14.75
2023-04-05T13:55:56.119Z,13.38
2023-04-05T13:58:23.283Z,13.45
2023-04-05T14:00:50.785Z,13.80
2023-04-05T14:03:18.048Z,13.18
2023-04-05T14:05:47.488Z,17.13
2023-04-05T14:08:16.499Z,14.05
2023-04-05T14:10:43.845Z,13.55
2023-04-05T14:13:12.898Z,15.85
2023-04-05T14:15:40.305Z,13.73
2023-04-05T14:18:07.705Z,16.48
2023-04-05T14:20:34.891Z,13.50
2023-04-05T14:23:02.438Z,13.45
2023-04-05T14:25:29.612Z,14.90
2023-04-05T14:27:56.781Z,15.55
2023-04-05T14:30:23.989Z,16.33
2023-04-05T14:32:51.288Z,17.45
2023-04-05T14:35:18.570Z,16.02
2023-04-05T14:37:45.772Z,16.38
2023-04-05T14:40:12.916Z,17.13
2023-04-05T14:42:48.578Z,20.42
2023-04-05T14:45:17.433Z,16.92
2023-04-05T14:47:44.572Z,16.75
2023-04-05T14:50:11.864Z,17.08
2023-04-05T14:52:40.158Z,18.25
2023-04-05T14:55:07.766Z,19.52
2023-04-05T14:57:34.880Z,20.63
2023-04-05T15:00:02.222Z,18.40
2023-04-05T15:02:29.428Z,18.08
2023-04-05T15:05:00.352Z,20.08
2023-04-05T15:07:30.687Z,18.40
2023-04-05T15:09:57.882Z,20.30
2023-04-05T15:12:25.527Z,20.95
2023-04-05T15:14:54.345Z,20.08
2023-04-05T15:17:22.076Z,19.85
2023-04-05T15:19:49.242Z,21.98
2023-04-05T15:22:17.679Z,20.73
2023-04-05T15:24:44.815Z,20.67
2023-04-05T15:27:12.020Z,22.63
2023-04-05T15:29:39.262Z,24.25
2023-04-05T15:32:06.568Z,20.73
2023-04-05T15:34:33.784Z,25.42
2023-04-05T15:37:00.995Z,28.23
2023-04-05T15:39:28.185Z,24.67
2023-04-05T15:41:59.688Z,23.55
2023-04-05T15:44:26.957Z,26.63
2023-04-05T15:46:54.169Z,27.48
2023-04-05T15:49:21.321Z,38.30
2023-04-05T15:51:48.609Z,27.13
2023-04-05T15:54:18.764Z,29.63
2023-04-05T15:56:46.143Z,29.17
2023-04-05T15:59:14.474Z,27.50
2023-04-05T16:01:41.755Z,29.40
2023-04-05T16:04:09.269Z,29.80
2023-04-05T16:06:36.605Z,30.00
2023-04-05T16:09:04.272Z,30.58
2023-04-05T16:11:31.666Z,32.92
2023-04-05T16:13:58.986Z,30.27
2023-04-05T16:16:38.584Z,27.38
2023-04-05T16:19:13.839Z,30.35
2023-04-05T16:21:41.065Z,31.35
2023-04-05T16:24:08.414Z,29.48
2023-04-05T16:26:35.769Z,34.05
2023-04-05T16:29:03.167Z,34.17
2023-04-05T16:31:30.689Z,33.33
2023-04-05T16:33:58.395Z,33.28
2023-04-05T16:36:25.887Z,29.05
2023-04-05T16:38:53.034Z,34.00
2023-04-05T16:41:20.537Z,38.15
2023-04-05T16:43:47.662Z,35.05
2023-04-05T16:46:14.945Z,31.90
2023-04-05T16:48:42.233Z,37.35
2023-04-05T16:51:09.416Z,33.83
2023-04-05T16:53:36.605Z,44.92
2023-04-05T16:56:03.887Z,32.83
2023-04-05T16:58:31.278Z,35.38
2023-04-05T17:01:00.231Z,34.20
2023-04-05T17:03:27.938Z,36.92
2023-04-05T17:05:55.658Z,33.60
2023-04-05T17:08:22.788Z,34.05
2023-04-05T17:10:49.957Z,36.67
2023-04-05T17:13:18.093Z,36.83
2023-04-05T17:15:45.537Z,35.08
2023-04-05T17:18:12.776Z,38.08
2023-04-05T17:20:40.016Z,35.08
2023-04-05T17:23:07.208Z,35.40
2023-04-05T17:25:34.458Z,37.30
2023-04-05T17:28:03.161Z,40.45
2023-04-05T17:30:31.334Z,39.63
2023-04-05T17:32:58.557Z,43.42
2023-04-05T17:35:25.884Z,38.17
2023-04-05T17:37:53.118Z,43.95
2023-04-05T17:40:20.429Z,36.47
2023-04-05T17:42:47.779Z,35.60
2023-04-05T17:45:14.956Z,38.45
2023-04-05T17:47:42.190Z,39.08
2023-04-05T17:50:09.576Z,41.15
2023-04-05T17:52:36.697Z,38.22
2023-04-05T17:55:04.027Z,43.25
2023-04-05T17:57:31.207Z,43.85
2023-04-05T17:59:59.301Z,42.20
2023-04-05T18:02:28.020Z,51.22
2023-04-05T18:04:55.380Z,46.42
2023-04-05T18:07:22.510Z,40.97
2023-04-05T18:09:49.816Z,47.35
2023-04-05T18:12:17.175Z,46.80
2023-04-05T18:14:44.336Z,47.00
2023-04-05T18:17:11.556Z,48.40
2023-04-05T18:19:38.685Z,46.47
2023-04-05T18:22:05.954Z,54.42
2023-04-05T18:24:33.148Z,47.60
2023-04-05T18:27:00.324Z,54.45
2023-04-05T18:29:30.450Z,56.13
2023-04-05T18:31:57.859Z,50.10
2023-04-05T18:34:25.176Z,52.33
2023-04-05T18:36:52.361Z,51.38
2023-04-05T18:39:20.276Z,50.28
2023-04-05T18:41:47.614Z,56.10
2023-04-05T18:44:14.928Z,52.47
2023-04-05T18:46:42.208Z,54.17
2023-04-05T18:49:09.573Z,58.10
2023-04-05T18:51:37.055Z,53.58
2023-04-05T18:54:04.445Z,49.63
2023-04-05T18:56:31.630Z,57.22
2023-04-05T18:58:58.915Z,52.33
2023-04-05T19:01:26.507Z,52.85
2023-04-05T19:03:53.748Z,55.00
2023-04-05T19:06:21.119Z,54.90
2023-04-05T19:08:48.354Z,59.40
2023-04-05T19:11:15.759Z,46.25
2023-04-05T19:13:42.906Z,59.42
2023-04-05T19:16:10.167Z,52.65
2023-04-05T19:18:37.383Z,55.42
2023-04-05T19:21:04.685Z,57.95
2023-04-05T19:23:32.675Z,56.72
2023-04-05T19:25:59.783Z,55.38
2023-04-05T19:28:27.386Z,56.53
2023-04-05T19:30:54.884Z,52.90
2023-04-05T19:33:22.130Z,57.40
2023-04-05T19:35:49.420Z,57.47
2023-04-05T19:38:16.736Z,52.80
2023-04-05T19:40:43.972Z,51.67
2023-04-05T19:43:11.914Z,55.75
2023-04-05T19:45:39.131Z,54.58
2023-04-05T19:48:26.653Z,51.60
2023-04-05T19:50:56.400Z,45.83
2023-04-05T19:53:38.828Z,47.80
2023-04-05T19:56:09.307Z,50.20
2023-04-05T19:58:36.417Z,46.30
2023-04-05T20:01:03.739Z,47.10
2023-04-05T20:03:34.882Z,47.45
2023-04-05T20:06:05.261Z,40.97
2023-04-05T20:08:34.146Z,42.33
2023-04-05T20:11:01.331Z,41.13
2023-04-05T20:13:28.533Z,46.70
2023-04-05T20:15:55.908Z,43.45
2023-04-05T20:18:27.189Z,47.67
2023-04-05T20:23:22.480Z,37.53
2023-04-05T20:25:50.940Z,38.55
2023-04-05T20:28:36.370Z,37.15
2023-04-05T20:31:03.700Z,39.63
2023-04-05T20:33:51.350Z,42.17
2023-04-05T20:36:38.852Z,49.75
2023-04-05T20:39:07.461Z,41.63
2023-04-05T20:41:35.104Z,41.58
2023-04-05T20:44:02.348Z,42.33
2023-04-05T20:46:29.811Z,35.58
2023-04-05T20:48:58.004Z,41.80
2023-04-05T20:51:25.682Z,39.30
2023-04-05T20:53:53.174Z,40.63
2023-04-05T20:56:20.460Z,41.50
2023-04-05T20:58:47.890Z,38.88
2023-04-05T21:01:15.622Z,40.55
2023-04-05T21:03:43.539Z,46.10
2023-04-05T21:06:11.313Z,41.03
2023-04-05T21:08:39.252Z,39.42
2023-04-05T21:11:07.107Z,44.85
2023-04-05T21:13:35.582Z,40.40
2023-04-05T21:16:02.830Z,40.22
2023-04-05T21:18:30.068Z,39.83
2023-04-05T21:20:57.303Z,38.28
2023-04-05T21:23:28.600Z,36.88
2023-04-05T21:28:23.139Z,33.22
2023-04-05T21:30:50.514Z,39.42
2023-04-05T21:33:17.719Z,33.22
2023-04-05T21:35:44.969Z,37.13
2023-04-05T21:38:14.224Z,38.53
2023-04-05T21:40:42.721Z,35.90
2023-04-05T21:43:09.894Z,34.13
2023-04-05T21:45:37.040Z,37.83
2023-04-05T21:48:04.280Z,32.58
2023-04-05T21:50:31.564Z,33.88
2023-04-05T21:52:58.673Z,32.20
2023-04-05T21:55:25.766Z,35.83
2023-04-05T21:57:52.990Z,32.47
2023-04-05T22:00:20.268Z,30.83
2023-04-05T22:02:47.582Z,29.63
2023-04-05T22:05:26.113Z,29.08
2023-04-05T22:07:57.196Z,31.35
2023-04-05T22:10:25.200Z,31.67
2023-04-05T22:12:52.332Z,27.30
2023-04-05T22:15:19.494Z,28.25
2023-04-05T22:17:46.744Z,27.83
2023-04-05T22:20:13.932Z,30.23
2023-04-05T22:22:41.254Z,28.08
2023-04-05T22:25:09.943Z,23.40
2023-04-05T22:27:37.206Z,24.40
2023-04-05T22:30:05.418Z,26.80
2023-04-05T22:32:32.695Z,25.02
2023-04-05T22:34:59.930Z,25.90
2023-04-05T22:37:27.083Z,23.55
2023-04-05T22:39:54.239Z,25.58
2023-04-05T22:42:21.571Z,22.45
2023-04-05T22:44:50.079Z,24.20
2023-04-05T22:47:17.222Z,22.15
2023-04-05T22:49:44.336Z,22.50
2023-04-05T22:52:11.447Z,22.85
2023-04-05T22:54:38.607Z,21.15
2023-04-05T22:57:05.881Z,21.10
2023-04-05T22:59:38.782Z,21.52
2023-04-05T23:02:06.419Z,21.20
2023-04-05T23:04:33.595Z,20.83
2023-04-05T23:07:00.854Z,21.92
2023-04-05T23:09:28.254Z,18.40
2023-04-05T23:11:55.475Z,18.85
2023-04-05T23:14:22.549Z,21.73
2023-04-05T23:16:49.905Z,24.92
2023-04-05T23:19:17.037Z,22.40
2023-04-05T23:21:44.195Z,18.75
2023-04-05T23:24:11.430Z,20.58
2023-04-05T23:26:38.720Z,19.33
2023-04-05T23:29:06.167Z,22.92
2023-04-05T23:31:33.511Z,17.73
2023-04-05T23:34:00.670Z,20.75
2023-04-05T23:36:28.759Z,20.33
2023-04-05T23:38:58.256Z,21.23
2023-04-05T23:41:25.650Z,19.15
2023-04-05T23:43:52.777Z,21.67
2023-04-05T23:46:20.152Z,18.55
2023-04-05T23:48:47.506Z,19.83
2023-04-05T23:51:14.623Z,19.55
2023-04-05T23:53:41.856Z,20.55
2023-04-05T23:56:09.014Z,21.38
2023-04-05T23:58:36.193Z,17.90
